Time;durP1;ratioP1;P1;durP2;ratioP2;P2;SDS_P1;SDS_P2;PMS_P1;PMS_P2;Temp;Humidity;BMP_temperature;BMP_pressure;BME280_temperature;BME280_humidity;BME280_pressure;Samples;Min_cycle;Max_cycle;Signal;HPM_P1;HPM_P2
2022/09/23 00:01:26;;;;;;;1.03;0.90;;;;;;;11.94;57.77;101763.81;4875014;28;97312;-47
2022/09/23 00:03:51;;;;;;;1.00;1.00;;;;;;;11.91;57.81;101765.50;4886497;28;96933;-48
2022/09/23 00:06:19;;;;;;;1.70;1.23;;;;;;;11.87;57.92;101762.19;4887576;28;98818;-48
2022/09/23 00:08:45;;;;;;;2.13;1.30;;;;;;;11.88;57.92;101760.19;4868747;28;97215;-48
2022/09/23 00:11:13;;;;;;;0.90;0.90;;;;;;;11.86;57.87;101757.16;4873887;28;96979;-47
2022/09/23 00:13:40;;;;;;;1.10;1.10;;;;;;;11.81;58.00;101761.31;4883132;28;96706;-49
2022/09/23 00:16:08;;;;;;;0.77;0.77;;;;;;;11.78;57.90;101759.50;4881064;28;97410;-48
2022/09/23 00:18:34;;;;;;;1.37;1.27;;;;;;;11.78;58.07;101759.50;4885625;28;97129;-48
2022/09/23 00:21:04;;;;;;;2.17;1.07;;;;;;;11.78;58.23;101750.47;4867520;28;97159;-46
2022/09/23 00:23:30;;;;;;;1.20;0.97;;;;;;;11.77;58.06;101746.94;4889029;28;97367;-49
2022/09/23 00:25:57;;;;;;;1.37;1.20;;;;;;;11.78;58.11;101744.94;4883026;28;97446;-48
2022/09/23 00:28:23;;;;;;;2.40;1.20;;;;;;;11.74;58.18;101750.66;4873790;28;96757;-48
2022/09/23 00:30:49;;;;;;;1.43;1.10;;;;;;;11.74;58.23;101745.16;4887515;28;97416;-48
2022/09/23 00:33:14;;;;;;;1.07;0.97;;;;;;;11.75;58.30;101754.19;4864003;28;97183;-51
2022/09/23 00:35:39;;;;;;;1.20;1.10;;;;;;;11.75;58.15;101741.16;4878366;28;116101;-48
2022/09/23 00:38:05;;;;;;;1.00;1.00;;;;;;;11.75;58.20;101743.91;4885970;28;97732;-49
2022/09/23 00:40:30;;;;;;;2.30;1.10;;;;;;;11.77;58.32;101735.19;4865395;28;97538;-48
2022/09/23 00:42:56;;;;;;;3.00;1.13;;;;;;;11.77;58.06;101743.44;4885514;28;97331;-48
2022/09/23 00:45:21;;;;;;;0.90;0.90;;;;;;;11.75;58.16;101741.16;4894747;28;108505;-47
2022/09/23 00:47:52;;;;;;;1.40;1.30;;;;;;;11.71;58.40;101735.06;4874465;28;97249;-47
2022/09/23 00:50:24;;;;;;;1.73;1.30;;;;;;;11.72;58.41;101739.34;4880283;28;97449;-48
2022/09/23 00:52:52;;;;;;;1.43;1.10;;;;;;;11.70;58.25;101730.78;4874828;28;97265;-48
2022/09/23 00:55:24;;;;;;;1.20;1.10;;;;;;;11.69;58.28;101732.00;4892435;28;97341;-50
2022/09/23 00:57:53;;;;;;;1.37;1.10;;;;;;;11.65;58.46;101725.91;4885228;28;97420;-47
2022/09/23 01:00:19;;;;;;;1.00;1.00;;;;;;;11.62;58.28;101726.84;4881292;28;97324;-47
2022/09/23 01:02:45;;;;;;;1.87;1.20;;;;;;;11.63;58.34;101716.59;4877225;28;96964;-47
2022/09/23 01:05:11;;;;;;;2.30;1.30;;;;;;;11.58;58.24;101712.47;4867553;28;98381;-46
2022/09/23 01:07:37;;;;;;;1.77;1.17;;;;;;;11.59;58.39;101716.78;4886366;28;97563;-46
2022/09/23 01:10:02;;;;;;;1.63;1.10;;;;;;;11.58;58.46;101712.47;4880268;28;97789;-47
2022/09/23 01:12:37;;;;;;;1.23;1.23;;;;;;;11.58;58.59;101712.47;4869521;28;97441;-49
2022/09/23 01:15:10;;;;;;;1.20;0.90;;;;;;;11.56;58.77;101717.72;4880752;28;98488;-48
2022/09/23 01:17:48;;;;;;;1.40;1.00;;;;;;;11.54;58.73;101708.38;4864782;28;96883;-46
2022/09/23 01:20:23;;;;;;;1.30;1.20;;;;;;;11.54;59.26;101709.16;4884480;28;97312;-47
2022/09/23 01:23:22;;;;;;;1.23;1.13;;;;;;;11.55;59.27;101705.19;4873068;28;97292;-50
2022/09/23 01:26:06;;;;;;;1.10;0.90;;;;;;;11.51;58.88;101693.56;4868465;28;103503;-46
2022/09/23 01:29:14;;;;;;;0.80;0.80;;;;;;;11.55;59.31;101699.66;4890188;28;97165;-47
2022/09/23 01:31:49;;;;;;;2.80;0.73;;;;;;;11.58;59.08;101704.22;4887589;28;98411;-46
2022/09/23 01:34:23;;;;;;;2.00;0.90;;;;;;;11.61;59.18;101686.75;4879703;28;97826;-46
2022/09/23 01:36:57;;;;;;;2.47;0.93;;;;;;;11.64;58.89;101690.56;4885385;28;103717;-49
2022/09/23 01:40:12;;;;;;;1.07;1.03;;;;;;;11.65;59.58;101692.06;4888917;28;98801;-47
2022/09/23 01:42:42;;;;;;;1.67;1.17;;;;;;;11.69;58.87;101682.41;4882566;28;96811;-46
2022/09/23 01:45:21;;;;;;;0.83;0.80;;;;;;;11.72;59.04;101681.47;4893541;28;97202;-47
2022/09/23 01:47:53;;;;;;;1.40;1.30;;;;;;;11.76;58.74;101681.25;4891756;28;101841;-51
2022/09/23 01:53:17;;;;;;;1.17;1.07;;;;;;;11.73;58.96;101696.75;4876820;28;97058;-46
2022/09/23 01:55:49;;;;;;;3.70;1.20;;;;;;;11.76;59.03;101678.50;4871540;28;97022;-46
2022/09/23 01:58:22;;;;;;;1.33;0.80;;;;;;;11.77;59.15;101678.00;4890555;28;97238;-46
2022/09/23 02:01:01;;;;;;;0.80;0.80;;;;;;;11.81;59.48;101678.63;4872074;28;99718;-46
2022/09/23 02:03:32;;;;;;;0.83;0.83;;;;;;;11.83;58.89;101673.38;4886537;28;97445;-46
2022/09/23 02:06:06;;;;;;;1.00;0.90;;;;;;;11.86;59.30;101674.44;4873985;28;96961;-50
2022/09/23 02:08:43;;;;;;;2.10;1.23;;;;;;;11.88;59.31;101667.19;4876723;28;97224;-47
2022/09/23 02:11:14;;;;;;;1.00;0.90;;;;;;;11.88;59.21;101667.19;4867039;28;97427;-47
2022/09/23 02:14:00;;;;;;;2.47;1.00;;;;;;;11.87;59.63;101665.66;4889167;28;97441;-46
2022/09/23 02:16:43;;;;;;;1.30;0.73;;;;;;;11.87;59.01;101660.16;4881912;28;97092;-48
2022/09/23 02:19:29;;;;;;;1.33;1.20;;;;;;;11.86;59.19;101664.13;4873471;28;100659;-48
2022/09/23 02:22:19;;;;;;;1.63;0.90;;;;;;;11.87;59.62;101662.16;4886873;28;97148;-48
2022/09/23 02:24:44;;;;;;;1.27;1.10;;;;;;;11.88;59.06;101661.66;4889571;28;97205;-50
2022/09/23 02:27:22;;;;;;;1.60;1.17;;;;;;;11.90;59.21;101655.69;4881040;28;96987;-48
2022/09/23 02:30:02;;;;;;;1.20;1.10;;;;;;;11.91;59.42;101651.69;4875256;28;101925;-48
2022/09/23 02:33:03;;;;;;;1.60;0.90;;;;;;;11.91;59.06;101652.44;4880883;28;103560;-48
2022/09/23 02:35:47;;;;;;;1.00;0.80;;;;;;;11.88;59.79;101644.38;4868277;28;97953;-48
2022/09/23 02:38:33;;;;;;;1.40;0.80;;;;;;;11.90;59.35;101642.63;4882253;28;97642;-48
2022/09/23 02:41:25;;;;;;;1.83;1.10;;;;;;;11.93;59.90;101641.69;4869179;28;97809;-48
2022/09/23 02:43:58;;;;;;;2.60;1.10;;;;;;;11.95;59.16;101643.97;4870454;28;102883;-49
2022/09/23 02:46:25;;;;;;;1.67;1.10;;;;;;;11.96;59.20;101643.50;4892322;28;97845;-48
2022/09/23 02:49:22;;;;;;;0.83;0.83;;;;;;;11.99;59.83;101639.03;4888325;28;98580;-48
2022/09/23 02:51:48;;;;;;;2.00;1.20;;;;;;;12.00;59.25;101643.31;4885129;28;101994;-48
2022/09/23 02:54:18;;;;;;;5.43;1.30;;;;;;;12.02;59.19;101633.31;4874925;28;97232;-48
2022/09/23 02:56:43;;;;;;;4.93;1.30;;;;;;;12.04;59.20;101630.84;4881683;28;96923;-48
2022/09/23 02:59:10;;;;;;;1.10;1.10;;;;;;;12.05;59.11;101631.59;4889204;28;97021;-48
2022/09/23 03:02:03;;;;;;;1.70;1.30;;;;;;;12.04;59.46;101636.34;4866764;28;97134;-48
2022/09/23 03:04:57;;;;;;;1.50;0.97;;;;;;;12.02;59.63;101627.81;4872275;28;101671;-48
2022/09/23 03:07:36;;;;;;;0.70;0.70;;;;;;;12.03;59.51;101626.56;4872975;28;99128;-48
2022/09/23 03:10:17;;;;;;;1.30;1.20;;;;;;;12.03;59.43;101626.56;4879130;28;101592;-48
2022/09/23 03:13:03;;;;;;;1.10;1.00;;;;;;;12.02;59.85;101627.81;4866380;28;98882;-48
2022/09/23 03:15:54;;;;;;;0.90;0.87;;;;;;;12.01;59.57;101620.75;4885341;28;101521;-48
2022/09/23 03:18:33;;;;;;;0.93;0.83;;;;;;;12.01;59.49;101623.50;4883619;28;97045;-48
2022/09/23 03:21:17;;;;;;;3.70;1.37;;;;;;;12.00;59.60;101613.72;4875876;28;97495;-48
2022/09/23 03:23:45;;;;;;;1.20;0.83;;;;;;;12.00;59.39;101615.72;4890681;28;103173;-47
2022/09/23 03:26:19;;;;;;;1.30;1.20;;;;;;;11.98;59.45;101621.72;4873006;28;97721;-48
2022/09/23 03:28:46;;;;;;;0.70;0.70;;;;;;;12.01;59.23;101611.75;4890484;28;96958;-48
2022/09/23 03:31:13;;;;;;;4.10;1.07;;;;;;;11.99;59.27;101609.44;4876608;28;96738;-47
2022/09/23 03:33:45;;;;;;;1.00;1.00;;;;;;;12.03;59.56;101612.75;4870799;28;97757;-48
2022/09/23 03:39:05;;;;;;;4.40;1.40;;;;;;;12.05;59.57;101609.53;4886954;28;96969;-48
2022/09/23 03:41:36;;;;;;;2.13;1.30;;;;;;;12.04;59.34;101608.00;4865723;28;97326;-48
2022/09/23 03:44:02;;;;;;;1.13;1.03;;;;;;;12.05;59.34;101606.78;4876658;28;97358;-48
2022/09/23 03:46:29;;;;;;;1.30;1.00;;;;;;;12.04;59.60;101599.72;4886639;28;97178;-48
2022/09/23 03:49:12;;;;;;;1.63;0.90;;;;;;;12.08;60.00;101605.06;4858029;28;96972;-48
2022/09/23 03:51:37;;;;;;;1.37;1.27;;;;;;;12.07;59.36;101595.25;4887481;28;98729;-47
2022/09/23 03:54:02;;;;;;;1.17;1.07;;;;;;;12.06;59.37;101596.53;4868700;28;97428;-48
2022/09/23 03:56:28;;;;;;;1.33;1.23;;;;;;;12.09;59.50;101590.03;4880110;28;97093;-48
2022/09/23 03:58:53;;;;;;;1.60;1.03;;;;;;;12.07;59.47;101595.25;4865796;28;105139;-48
2022/09/23 04:01:18;;;;;;;1.00;0.90;;;;;;;12.06;59.43;101588.25;4881668;28;104726;-48
2022/09/23 04:03:44;;;;;;;4.07;1.23;;;;;;;12.05;59.67;101584.72;4890762;28;115835;-48
2022/09/23 04:06:09;;;;;;;1.40;1.20;;;;;;;12.07;59.51;101584.22;4880678;28;97155;-48
2022/09/23 04:08:34;;;;;;;0.90;0.90;;;;;;;12.08;59.76;101580.97;4877333;28;99687;-48
2022/09/23 04:11:01;;;;;;;5.77;1.07;;;;;;;12.08;59.70;101575.47;4886940;28;101423;-48
2022/09/23 04:13:27;;;;;;;0.80;0.70;;;;;;;12.09;59.62;101577.00;4861985;28;97655;-47
2022/09/23 04:15:52;;;;;;;1.47;1.10;;;;;;;12.09;59.66;101573.47;4882112;28;98286;-48
2022/09/23 04:18:18;;;;;;;2.10;1.30;;;;;;;12.06;59.60;101566.19;4882935;28;97893;-48
2022/09/23 04:20:43;;;;;;;1.50;0.93;;;;;;;12.02;59.63;101561.59;4874810;28;97033;-48
2022/09/23 04:23:09;;;;;;;2.20;1.10;;;;;;;12.01;59.44;101553.81;4882926;28;117644;-48
2022/09/23 04:25:34;;;;;;;1.20;0.90;;;;;;;11.96;59.39;101555.25;4882371;28;113194;-49
2022/09/23 04:28:00;;;;;;;1.13;0.97;;;;;;;11.95;59.51;101556.47;4886471;28;97331;-48
2022/09/23 04:30:25;;;;;;;4.90;1.10;;;;;;;11.92;59.48;101557.47;4878155;28;98060;-48
2022/09/23 04:32:51;;;;;;;1.00;0.70;;;;;;;11.90;59.62;101559.91;4878967;28;97411;-48
2022/09/23 04:35:17;;;;;;;2.10;1.33;;;;;;;11.88;59.60;101558.91;4885226;28;97541;-48
2022/09/23 04:37:43;;;;;;;3.43;1.17;;;;;;;11.84;59.58;101559.06;4879923;28;96765;-47
2022/09/23 04:40:08;;;;;;;1.70;1.17;;;;;;;11.84;59.55;101561.06;4870172;28;97131;-47
2022/09/23 04:42:34;;;;;;;2.67;1.00;;;;;;;11.81;59.70;101556.53;4889407;28;97502;-48
2022/09/23 04:44:59;;;;;;;1.13;1.03;;;;;;;11.78;59.76;101555.47;4881700;28;97638;-48
2022/09/23 04:47:25;;;;;;;1.50;1.40;;;;;;;11.78;59.77;101557.47;4877039;28;97140;-48
2022/09/23 04:49:50;;;;;;;2.03;1.17;;;;;;;11.75;59.64;101553.69;4884577;28;97195;-48
2022/09/23 04:52:15;;;;;;;3.27;1.00;;;;;;;11.72;59.54;101556.63;4891789;28;97543;-48
2022/09/23 04:54:41;;;;;;;3.13;1.40;;;;;;;11.70;59.60;101556.34;4883891;28;97324;-48
2022/09/23 04:57:09;;;;;;;2.53;1.00;;;;;;;11.68;59.74;101556.84;4890045;28;108892;-48
2022/09/23 04:59:36;;;;;;;1.73;0.93;;;;;;;11.66;59.66;101553.78;4873461;28;98003;-48
2022/09/23 05:02:01;;;;;;;1.00;0.87;;;;;;;11.67;59.71;101560.06;4892815;28;96981;-48
2022/09/23 05:04:26;;;;;;;1.33;1.20;;;;;;;11.64;59.84;101550.72;4889183;28;97244;-48
2022/09/23 05:06:52;;;;;;;1.17;1.17;;;;;;;11.62;59.64;101549.69;4881489;28;96921;-48
2022/09/23 05:09:17;;;;;;;1.67;1.10;;;;;;;11.59;59.68;101548.66;4892885;28;97215;-48
2022/09/23 05:11:44;;;;;;;1.37;1.27;;;;;;;11.56;59.57;101557.09;4892241;28;97820;-48
2022/09/23 05:14:10;;;;;;;1.63;1.33;;;;;;;11.53;59.89;101556.03;4870592;28;97230;-47
2022/09/23 05:16:35;;;;;;;1.23;1.10;;;;;;;11.53;59.79;101553.28;4888769;28;97080;-48
2022/09/23 05:19:02;;;;;;;1.37;1.20;;;;;;;11.51;59.83;101561.28;4892342;28;97771;-49
2022/09/23 05:21:27;;;;;;;3.13;1.03;;;;;;;11.52;59.83;101559.28;4884384;28;101179;-47
2022/09/23 05:23:57;;;;;;;3.23;1.03;;;;;;;11.51;59.92;101555.75;4894662;28;98271;-48
2022/09/23 05:26:24;;;;;;;1.40;1.13;;;;;;;11.51;59.95;101558.53;4869549;28;97526;-48
2022/09/23 05:28:50;;;;;;;2.20;1.20;;;;;;;11.53;59.90;101558.06;4885062;28;97153;-48
2022/09/23 05:31:18;;;;;;;2.17;1.33;;;;;;;11.54;60.00;101554.06;4891528;28;97195;-48
2022/09/23 05:33:47;;;;;;;27.00;1.33;;;;;;;11.54;59.85;101548.53;4872455;28;97575;-48
2022/09/23 05:36:14;;;;;;;2.50;1.50;;;;;;;11.56;59.97;101552.34;4888574;28;97535;-48
2022/09/23 05:38:39;;;;;;;1.33;1.20;;;;;;;11.55;59.83;101559.13;4882772;28;97286;-48
2022/09/23 05:41:07;;;;;;;1.40;1.30;;;;;;;11.55;60.03;101547.31;4888898;28;97318;-48
2022/09/23 05:43:33;;;;;;;2.50;1.43;;;;;;;11.56;59.96;101546.84;4886696;28;102013;-48
2022/09/23 05:46:04;;;;;;;0.93;0.93;;;;;;;11.59;60.05;101545.91;4878386;28;96954;-48
2022/09/23 05:48:31;;;;;;;1.23;1.10;;;;;;;11.62;59.89;101552.44;4892973;28;97695;-48
2022/09/23 05:50:57;;;;;;;1.00;1.00;;;;;;;11.64;59.91;101547.22;4876550;28;98699;-48
2022/09/23 05:53:22;;;;;;;3.53;1.00;;;;;;;11.65;60.08;101555.00;4888423;28;97888;-48
2022/09/23 05:55:48;;;;;;;1.00;0.90;;;;;;;11.67;59.84;101547.03;4884401;28;107802;-48
2022/09/23 05:58:13;;;;;;;1.60;1.13;;;;;;;11.69;60.04;101552.84;4879280;28;97193;-48
2022/09/23 06:00:40;;;;;;;2.17;0.93;;;;;;;11.72;59.83;101549.13;4882176;28;97391;-49
2022/09/23 06:03:12;;;;;;;0.93;0.93;;;;;;;11.73;60.12;101552.66;4883783;28;98564;-48
2022/09/23 06:05:37;;;;;;;1.23;1.13;;;;;;;11.76;59.99;101554.44;4879586;28;97173;-48
2022/09/23 06:08:02;;;;;;;5.60;0.70;;;;;;;11.79;60.06;101551.50;4887262;28;97661;-48
2022/09/23 06:10:28;;;;;;;1.07;1.07;;;;;;;11.81;59.84;101545.50;4875638;28;97421;-48
2022/09/23 06:12:53;;;;;;;0.93;0.80;;;;;;;11.82;60.01;101541.50;4883614;28;106820;-48
2022/09/23 06:15:18;;;;;;;1.30;0.80;;;;;;;11.85;59.87;101546.06;4881330;28;96739;-48
2022/09/23 06:17:44;;;;;;;11.63;1.30;;;;;;;11.87;60.07;101549.88;4873792;28;97702;-48
2022/09/23 06:20:10;;;;;;;1.27;0.97;;;;;;;11.91;59.84;101538.63;4894244;28;96985;-48
2022/09/23 06:22:35;;;;;;;1.07;1.07;;;;;;;11.95;59.94;101539.19;4892949;28;100023;-48
2022/09/23 06:25:00;;;;;;;1.30;0.77;;;;;;;11.96;59.88;101547.00;4873245;28;109512;-48
2022/09/23 06:27:26;;;;;;;0.87;0.87;;;;;;;11.98;60.07;101544.50;4887993;28;111308;-48
2022/09/23 06:29:51;;;;;;;0.73;0.73;;;;;;;12.02;59.96;101549.81;4881231;28;103274;-48
2022/09/23 06:32:18;;;;;;;1.83;1.07;;;;;;;12.04;60.13;101545.34;4869638;28;96941;-48
2022/09/23 06:34:44;;;;;;;1.83;1.20;;;;;;;12.07;60.23;101546.38;4882593;28;97291;-48
2022/09/23 06:37:10;;;;;;;5.73;1.50;;;;;;;12.13;60.11;101549.19;4879887;28;97512;-48
2022/09/23 06:39:35;;;;;;;2.30;1.10;;;;;;;12.16;60.21;101540.75;4883370;28;100283;-48
2022/09/23 06:42:01;;;;;;;1.43;1.10;;;;;;;12.19;60.28;101539.03;4890684;28;97639;-48
2022/09/23 06:44:27;;;;;;;1.47;1.03;;;;;;;12.22;60.47;101549.84;4873221;28;97510;-48
2022/09/23 06:46:52;;;;;;;1.50;1.40;;;;;;;12.26;60.10;101541.34;4886461;28;96921;-48
2022/09/23 06:49:19;;;;;;;6.23;1.27;;;;;;;12.26;60.36;101539.34;4888154;28;97095;-48
2022/09/23 06:51:44;;;;;;;1.10;1.00;;;;;;;12.31;60.29;101543.44;4861601;28;97288;-48
2022/09/23 06:54:10;;;;;;;1.30;1.20;;;;;;;12.33;60.21;101552.00;4884992;28;110905;-48
2022/09/23 06:56:35;;;;;;;3.80;0.90;;;;;;;12.36;60.08;101548.28;4888199;28;96902;-48
2022/09/23 06:59:01;;;;;;;0.97;0.87;;;;;;;12.37;60.28;101545.03;4869668;28;98694;-48
2022/09/23 07:01:26;;;;;;;1.97;1.00;;;;;;;12.39;60.33;101550.81;4886732;28;114403;-48
2022/09/23 07:03:53;;;;;;;2.70;1.00;;;;;;;12.43;60.13;101547.84;4890769;28;97353;-48
2022/09/23 07:06:18;;;;;;;2.03;0.97;;;;;;;12.46;60.37;101552.41;4875943;28;97183;-48
2022/09/23 07:08:48;;;;;;;0.97;0.97;;;;;;;12.47;60.34;101549.16;4885616;28;97726;-48
2022/09/23 07:11:14;;;;;;;3.50;1.20;;;;;;;12.50;60.14;101542.69;4868497;28;98551;-48
2022/09/23 07:13:41;;;;;;;1.27;0.90;;;;;;;12.53;60.40;101541.72;4879744;28;96828;-48
2022/09/23 07:16:07;;;;;;;1.03;0.90;;;;;;;12.57;60.42;101544.25;4883488;28;97456;-48
2022/09/23 07:18:33;;;;;;;7.97;0.97;;;;;;;12.61;60.33;101547.56;4876454;28;100030;-48
2022/09/23 07:21:14;;;;;;;1.20;0.90;;;;;;;12.67;60.54;101548.38;4889302;28;98036;-48
2022/09/23 07:23:47;;;;;;;1.40;1.30;;;;;;;12.69;60.78;101535.63;4874756;28;98614;-48
2022/09/23 07:26:14;;;;;;;1.87;1.03;;;;;;;12.73;60.40;101538.19;4888066;28;97412;-48
2022/09/23 07:28:39;;;;;;;1.23;0.90;;;;;;;12.76;60.42;101540.72;4871807;28;98555;-48
2022/09/23 07:31:08;;;;;;;1.00;0.97;;;;;;;12.85;60.53;101553.63;4881387;28;102836;-48
2022/09/23 07:33:36;;;;;;;2.80;1.40;;;;;;;12.91;60.26;101551.66;4885963;28;96881;-48
2022/09/23 07:36:06;;;;;;;1.50;1.10;;;;;;;12.97;60.35;101546.22;4874852;28;97397;-48
2022/09/23 07:38:31;;;;;;;1.00;1.00;;;;;;;13.02;60.37;101573.88;4881772;28;99644;-48
2022/09/23 07:41:05;;;;;;;2.03;0.87;;;;;;;13.12;60.93;101546.88;4877184;28;99102;-48
2022/09/23 07:43:31;;;;;;;0.93;0.90;;;;;;;13.19;60.54;101549.97;4884396;28;96898;-48
2022/09/23 07:46:02;;;;;;;2.23;1.30;;;;;;;13.30;60.35;101544.53;4894017;28;97013;-48
2022/09/23 07:48:29;;;;;;;1.63;1.03;;;;;;;13.42;60.30;101550.91;4886496;28;101853;-47
2022/09/23 07:50:55;;;;;;;1.07;0.97;;;;;;;13.52;60.29;101535.66;4881683;28;97314;-48
2022/09/23 07:53:21;;;;;;;1.10;1.00;;;;;;;13.62;60.38;101539.00;4874438;28;97215;-48
2022/09/23 07:55:54;;;;;;;3.90;1.00;;;;;;;13.74;60.14;101535.81;4888782;28;98899;-52
2022/09/23 07:58:20;;;;;;;0.93;0.93;;;;;;;13.85;59.93;101543.44;4885264;28;98703;-47
2022/09/23 08:00:46;;;;;;;2.63;0.80;;;;;;;13.97;59.81;101539.50;4881108;28;97203;-48
2022/09/23 08:03:11;;;;;;;1.30;0.90;;;;;;;14.08;60.05;101539.56;4884367;28;97431;-48
2022/09/23 08:05:37;;;;;;;0.73;0.73;;;;;;;14.20;59.89;101541.13;4875942;28;96949;-48
2022/09/23 08:08:05;;;;;;;1.10;0.77;;;;;;;14.27;59.65;101538.66;4880626;28;97593;-48
2022/09/23 08:10:31;;;;;;;1.10;1.03;;;;;;;14.36;59.72;101534.97;4889422;28;97557;-48
2022/09/23 08:12:57;;;;;;;2.70;1.00;;;;;;;14.47;59.48;101534.25;4865415;28;97297;-48
2022/09/23 08:15:23;;;;;;;1.83;0.73;;;;;;;14.56;59.37;101537.56;4885594;28;96690;-48
2022/09/23 08:17:48;;;;;;;1.40;1.17;;;;;;;14.65;59.46;101537.34;4880987;28;97141;-48
2022/09/23 08:20:43;;;;;;;0.80;0.80;;;;;;;14.74;59.39;101536.34;4864609;28;112460;-48
2022/09/23 08:22:58;;;;;;;2.30;0.90;;;;;;;14.84;59.27;101529.31;4882448;28;98822;-48
2022/09/23 08:25:24;;;;;;;5.63;1.30;;;;;;;14.92;59.24;101533.88;4874863;28;96919;-48
2022/09/23 08:27:49;;;;;;;2.67;1.43;;;;;;;15.00;59.04;101534.88;4882032;28;97573;-48
2022/09/23 08:30:15;;;;;;;0.70;0.70;;;;;;;15.11;59.25;101527.88;4880232;28;109773;-49
2022/09/23 08:32:40;;;;;;;1.03;0.93;;;;;;;15.23;59.11;101532.91;4872468;28;114326;-48
2022/09/23 08:35:06;;;;;;;1.10;0.70;;;;;;;15.37;59.02;101533.94;4891033;28;97497;-48
2022/09/23 08:37:31;;;;;;;0.63;0.60;;;;;;;15.55;58.91;101534.19;4875766;28;96774;-48
2022/09/23 08:39:56;;;;;;;0.73;0.73;;;;;;;15.71;58.56;101538.22;4884569;28;113185;-48
2022/09/23 08:42:30;;;;;;;1.27;0.73;;;;;;;15.87;58.27;101537.44;4887789;28;109979;-48
2022/09/23 08:45:03;;;;;;;1.80;0.80;;;;;;;16.03;58.48;101535.91;4874513;28;97166;-47
2022/09/23 08:47:33;;;;;;;1.57;0.93;;;;;;;16.19;57.95;101535.06;4883941;28;97447;-48
2022/09/23 08:50:12;;;;;;;1.10;0.90;;;;;;;16.33;57.86;101534.03;4875528;28;97204;-48
2022/09/23 08:52:53;;;;;;;1.00;0.97;;;;;;;16.47;57.99;101528.16;4882951;28;96921;-48
2022/09/23 08:55:33;;;;;;;6.20;1.17;;;;;;;16.60;57.63;101532.44;4881302;28;97308;-48
2022/09/23 08:58:20;;;;;;;0.80;0.80;;;;;;;16.73;56.46;101521.50;4881213;28;100380;-48
2022/09/23 09:01:00;;;;;;;0.90;0.70;;;;;;;16.84;56.92;101524.22;4878543;28;100531;-48
2022/09/23 09:03:33;;;;;;;2.03;0.77;;;;;;;16.92;57.18;101525.94;4864440;28;97240;-48
2022/09/23 09:05:58;;;;;;;2.77;0.97;;;;;;;17.01;57.14;101525.63;4886674;28;96913;-48
2022/09/23 09:08:30;;;;;;;0.73;0.63;;;;;;;17.12;56.92;101519.22;4872018;28;97731;-48
2022/09/23 09:10:57;;;;;;;0.80;0.80;;;;;;;17.19;56.85;101524.19;4894159;28;98378;-49
2022/09/23 09:13:27;;;;;;;3.40;0.90;;;;;;;17.27;56.45;101508.47;4883960;28;97412;-48
2022/09/23 09:16:13;;;;;;;1.53;0.73;;;;;;;17.37;56.11;101518.00;4882781;28;97433;-48
2022/09/23 09:18:54;;;;;;;0.80;0.80;;;;;;;17.50;55.91;101509.81;4866218;28;102871;-48
2022/09/23 09:21:28;;;;;;;0.83;0.80;;;;;;;17.62;55.20;101513.25;4890046;28;97507;-48
2022/09/23 09:23:58;;;;;;;1.03;0.70;;;;;;;17.71;54.94;101512.94;4871905;28;96805;-48
2022/09/23 09:26:31;;;;;;;1.00;0.87;;;;;;;17.80;54.76;101504.22;4886016;28;97189;-48
2022/09/23 09:29:01;;;;;;;1.53;0.90;;;;;;;17.90;55.18;101508.94;4874582;28;98591;-48
2022/09/23 09:31:41;;;;;;;1.17;0.80;;;;;;;18.01;54.01;101505.25;4883005;28;99905;-48
2022/09/23 09:34:25;;;;;;;1.67;0.73;;;;;;;18.09;53.56;101503.38;4874442;28;98149;-48
2022/09/23 09:37:19;;;;;;;1.87;0.80;;;;;;;18.18;53.48;101502.28;4884236;28;97214;-47
2022/09/23 09:39:44;;;;;;;0.77;0.77;;;;;;;18.22;54.51;101497.16;4884063;28;100553;-48
2022/09/23 09:42:19;;;;;;;0.73;0.73;;;;;;;18.30;53.33;101498.09;4883830;28;97271;-48
2022/09/23 09:44:57;;;;;;;1.17;0.80;;;;;;;18.35;54.30;101495.22;4879186;28;97691;-51
2022/09/23 09:47:45;;;;;;;1.10;0.60;;;;;;;18.37;53.79;101495.44;4870321;28;97478;-48
2022/09/23 09:50:50;;;;;;;1.77;0.90;;;;;;;18.31;52.53;101491.22;4888829;28;96951;-48
2022/09/23 09:53:22;;;;;;;1.73;1.00;;;;;;;18.34;53.77;101490.94;4882395;28;102809;-48
2022/09/23 09:55:57;;;;;;;0.73;0.73;;;;;;;18.36;52.39;101490.41;4862491;28;97037;-47
2022/09/23 09:58:24;;;;;;;0.70;0.60;;;;;;;18.38;53.72;101485.06;4886693;28;96905;-48
2022/09/23 10:00:51;;;;;;;0.70;0.70;;;;;;;18.37;53.88;101481.50;4868409;28;97618;-48
2022/09/23 10:03:16;;;;;;;0.70;0.67;;;;;;;18.41;53.69;101478.44;4879934;28;97859;-48
2022/09/23 10:05:44;;;;;;;1.13;0.90;;;;;;;18.46;53.18;101474.84;4889135;28;97274;-48
2022/09/23 10:08:33;;;;;;;1.30;0.70;;;;;;;18.54;51.89;101465.34;4867012;28;96778;-48
2022/09/23 10:11:02;;;;;;;1.33;0.83;;;;;;;18.66;53.10;101471.50;4890890;28;101799;-51
2022/09/23 10:13:29;;;;;;;0.70;0.67;;;;;;;18.78;52.74;101463.75;4883441;28;102459;-48
2022/09/23 10:15:56;;;;;;;0.63;0.60;;;;;;;18.87;52.50;101469.66;4881602;28;96631;-48
2022/09/23 10:18:48;;;;;;;3.07;0.83;;;;;;;18.98;51.87;101461.13;4867106;28;96751;-48
2022/09/23 10:21:16;;;;;;;3.53;0.97;;;;;;;19.06;52.22;101452.91;4886379;28;100573;-48
2022/09/23 10:23:44;;;;;;;1.33;0.80;;;;;;;19.14;51.92;101448.19;4872267;28;97506;-48
2022/09/23 10:26:11;;;;;;;1.10;1.00;;;;;;;19.22;51.94;101451.88;4891357;28;97178;-48
2022/09/23 10:28:40;;;;;;;1.70;0.60;;;;;;;19.28;51.76;101453.28;4875542;28;98228;-48
2022/09/23 10:31:08;;;;;;;0.60;0.50;;;;;;;19.33;51.50;101451.69;4889097;28;97284;-48
2022/09/23 10:33:39;;;;;;;1.00;0.90;;;;;;;19.39;50.75;101446.78;4882699;28;98331;-48
2022/09/23 10:36:08;;;;;;;3.23;0.70;;;;;;;19.49;51.09;101452.69;4885137;28;96894;-48
2022/09/23 10:38:33;;;;;;;1.10;1.00;;;;;;;19.56;51.11;101452.81;4886707;28;97091;-47
2022/09/23 10:46:57;;;;;;;0.80;0.60;;;;;;;19.73;49.82;101449.69;4888774;28;97256;-48
2022/09/23 10:49:29;;;;;;;2.67;0.80;;;;;;;19.81;49.83;101442.19;4872541;28;97507;-47
2022/09/23 10:52:19;;;;;;;0.70;0.60;;;;;;;19.89;48.76;101431.88;4877784;28;98104;-48
2022/09/23 10:55:03;;;;;;;0.70;0.70;;;;;;;19.97;49.27;101427.88;4877528;28;101611;-48
2022/09/23 10:57:43;;;;;;;1.60;0.70;;;;;;;20.07;49.37;101431.00;4869657;28;96964;-48
2022/09/23 11:00:35;;;;;;;0.90;0.70;;;;;;;20.18;48.64;101430.75;4890564;28;97105;-48
2022/09/23 11:03:31;;;;;;;1.10;0.70;;;;;;;20.28;49.09;101422.69;4886210;28;100281;-48
2022/09/23 11:06:37;;;;;;;0.70;0.60;;;;;;;20.40;49.11;101427.47;4881483;28;101705;-48
2022/09/23 11:09:24;;;;;;;1.97;0.67;;;;;;;20.50;47.84;101428.53;4885946;28;97301;-48
2022/09/23 11:12:03;;;;;;;0.90;0.90;;;;;;;20.60;48.86;101429.56;4874673;28;97426;-48
2022/09/23 11:14:50;;;;;;;2.00;0.93;;;;;;;20.61;47.58;101417.09;4884370;28;97640;-48
2022/09/23 11:17:46;;;;;;;0.70;0.60;;;;;;;20.67;47.72;101417.72;4884754;28;101782;-48
2022/09/23 11:20:24;;;;;;;1.10;0.80;;;;;;;20.75;48.40;101420.59;4872934;28;98423;-47
2022/09/23 11:23:22;;;;;;;0.70;0.70;;;;;;;20.85;47.78;101408.38;4888323;28;98968;-48
2022/09/23 11:25:58;;;;;;;1.07;0.63;;;;;;;20.94;48.55;101398.75;4881029;28;101992;-48
2022/09/23 11:28:41;;;;;;;2.63;0.77;;;;;;;21.01;47.12;101400.13;4869871;28;96907;-48
2022/09/23 11:31:24;;;;;;;0.83;0.83;;;;;;;21.04;47.12;101402.59;4884651;28;99296;-48
2022/09/23 11:34:02;;;;;;;0.80;0.50;;;;;;;21.08;48.36;101403.00;4884823;28;96991;-48
2022/09/23 11:36:32;;;;;;;1.17;0.70;;;;;;;21.14;48.34;101402.88;4867399;28;98057;-48
2022/09/23 11:39:01;;;;;;;1.70;0.70;;;;;;;21.20;47.77;101397.88;4883142;28;97228;-48
2022/09/23 11:41:30;;;;;;;1.20;0.70;;;;;;;21.24;47.64;101399.03;4884391;28;97723;-48
2022/09/23 11:44:20;;;;;;;1.57;0.63;;;;;;;21.28;46.20;101390.25;4888543;28;97528;-48
2022/09/23 11:46:55;;;;;;;0.70;0.60;;;;;;;21.33;46.40;101394.97;4868638;28;100345;-48
2022/09/23 11:49:29;;;;;;;0.60;0.60;;;;;;;21.39;46.70;101392.75;4887162;28;97166;-48
2022/09/23 11:52:18;;;;;;;0.90;0.63;;;;;;;21.46;46.10;101387.22;4866708;28;97358;-48
2022/09/23 11:54:55;;;;;;;0.70;0.70;;;;;;;21.49;46.10;101380.50;4885739;28;97743;-48
2022/09/23 11:57:34;;;;;;;1.13;0.73;;;;;;;21.51;45.86;101382.78;4881507;28;103626;-48